createdAt,value
2022-11-13T00:01:14.575Z,12.73
2022-11-13T00:04:02.484Z,15.70
2022-11-13T00:06:48.825Z,8.73
2022-11-13T00:09:35.013Z,16.30
2022-11-13T00:12:21.648Z,13.03
2022-11-13T00:15:08.202Z,14.73
2022-11-13T00:17:54.579Z,16.73
2022-11-13T00:20:42.369Z,10.60
2022-11-13T00:23:28.327Z,14.10
2022-11-13T00:26:16.699Z,11.30
2022-11-13T00:29:04.634Z,9.80
2022-11-13T00:31:51.015Z,8.93
2022-11-13T00:34:52.549Z,11.83
2022-11-13T00:37:40.154Z,11.93
2022-11-13T00:40:26.376Z,10.37
2022-11-13T00:43:12.597Z,14.37
2022-11-13T00:45:59.066Z,15.33
2022-11-13T00:48:45.600Z,20.30
2022-11-13T00:51:32.054Z,12.40
2022-11-13T00:54:20.106Z,9.33
2022-11-13T00:57:06.275Z,13.37
2022-11-13T00:59:52.326Z,11.50
2022-11-13T01:02:38.583Z,10.77
2022-11-13T01:05:24.790Z,16.73
2022-11-13T01:08:12.167Z,11.20
2022-11-13T01:10:59.872Z,13.37
2022-11-13T01:13:48.615Z,8.87
2022-11-13T01:16:34.857Z,14.20
2022-11-13T01:19:21.493Z,9.77
2022-11-13T01:22:07.824Z,11.63
2022-11-13T01:24:53.770Z,10.30
2022-11-13T01:27:41.712Z,8.93
2022-11-13T01:30:28.058Z,9.67
2022-11-13T01:33:14.241Z,12.50
2022-11-13T01:36:05.106Z,16.20
2022-11-13T01:38:52.341Z,10.87
2022-11-13T01:41:39.050Z,8.13
2022-11-13T01:44:26.476Z,12.23
2022-11-13T01:47:12.782Z,14.03
2022-11-13T01:50:03.565Z,12.00
2022-11-13T01:52:49.921Z,10.57
2022-11-13T01:55:36.255Z,10.73
2022-11-13T01:58:22.246Z,13.77
2022-11-13T02:01:09.988Z,9.33
2022-11-13T02:03:56.207Z,10.33
2022-11-13T02:06:46.682Z,12.40
2022-11-13T02:09:38.018Z,9.43
2022-11-13T02:12:31.998Z,10.93
2022-11-13T02:15:20.561Z,12.10
2022-11-13T02:18:09.919Z,13.07
2022-11-13T02:21:06.883Z,11.20
2022-11-13T02:24:00.961Z,9.10
2022-11-13T02:26:51.760Z,9.30
2022-11-13T02:29:38.064Z,11.80
2022-11-13T02:32:24.256Z,12.80
2022-11-13T02:35:10.908Z,13.33
2022-11-13T02:37:59.048Z,9.20
2022-11-13T02:40:45.437Z,12.53
2022-11-13T02:43:33.033Z,13.00
2022-11-13T02:46:19.328Z,9.00
2022-11-13T02:49:06.242Z,16.37
2022-11-13T02:51:52.693Z,12.17
2022-11-13T02:54:38.691Z,11.80
2022-11-13T02:57:25.221Z,13.17
2022-11-13T03:00:14.491Z,11.87
2022-11-13T03:03:00.597Z,8.50
2022-11-13T03:05:49.627Z,13.80
2022-11-13T03:08:36.792Z,9.60
2022-11-13T03:11:23.500Z,18.07
2022-11-13T03:14:10.003Z,13.07
2022-11-13T03:16:57.614Z,18.50
2022-11-13T03:19:43.556Z,18.60
2022-11-13T03:22:29.718Z,12.27
2022-11-13T03:25:22.128Z,11.17
2022-11-13T03:28:08.127Z,17.13
2022-11-13T03:30:54.359Z,13.93
2022-11-13T03:33:41.978Z,12.83
2022-11-13T03:36:28.413Z,14.80
2022-11-13T03:39:15.041Z,11.33
2022-11-13T03:42:01.363Z,13.93
2022-11-13T03:44:47.658Z,14.80
2022-11-13T03:47:33.784Z,14.30
2022-11-13T03:50:21.606Z,15.93
2022-11-13T03:53:08.094Z,14.50
2022-11-13T03:55:54.271Z,8.90
2022-11-13T03:58:41.096Z,16.63
2022-11-13T04:01:28.206Z,13.00
2022-11-13T04:04:15.645Z,14.47
2022-11-13T04:07:03.494Z,11.37
2022-11-13T04:09:49.812Z,13.87
2022-11-13T04:12:35.834Z,8.90
2022-11-13T04:15:22.464Z,12.43
2022-11-13T04:18:08.721Z,10.83
2022-11-13T04:21:00.314Z,13.17
2022-11-13T04:23:48.011Z,14.40
2022-11-13T04:26:34.245Z,13.37
2022-11-13T04:29:20.358Z,13.63
2022-11-13T04:32:07.132Z,17.50
2022-11-13T04:34:53.319Z,10.87
2022-11-13T04:37:39.583Z,12.03
2022-11-13T04:40:27.192Z,12.63
2022-11-13T04:43:12.621Z,9.83
2022-11-13T04:45:58.596Z,12.13
2022-11-13T04:48:44.778Z,12.67
2022-11-13T04:51:31.111Z,18.67
2022-11-13T04:54:17.254Z,18.90
2022-11-13T04:57:04.695Z,12.10
2022-11-13T04:59:50.792Z,12.60
2022-11-13T05:02:36.920Z,11.07
2022-11-13T05:05:22.900Z,14.47
2022-11-13T05:08:09.030Z,15.77
2022-11-13T05:10:55.299Z,16.73
2022-11-13T05:13:42.924Z,18.63
2022-11-13T05:16:29.191Z,11.60
2022-11-13T05:19:15.189Z,13.17
2022-11-13T05:22:01.547Z,16.33
2022-11-13T05:24:47.574Z,11.77
2022-11-13T05:27:33.907Z,13.03
2022-11-13T05:30:21.214Z,12.83
2022-11-13T05:33:07.307Z,14.57
2022-11-13T05:35:53.525Z,11.33
2022-11-13T05:38:40.612Z,15.20
2022-11-13T05:41:27.333Z,13.03
2022-11-13T05:44:13.437Z,15.03
2022-11-13T05:47:00.803Z,10.77
2022-11-13T05:49:46.789Z,16.17
2022-11-13T05:52:33.169Z,13.43
2022-11-13T05:55:23.153Z,15.87
2022-11-13T05:58:11.683Z,13.87
2022-11-13T06:01:07.428Z,12.27
2022-11-13T06:03:55.999Z,9.57
2022-11-13T06:06:42.336Z,14.37
2022-11-13T06:09:28.477Z,13.40
2022-11-13T06:12:14.834Z,13.83
2022-11-13T06:15:00.929Z,13.20
2022-11-13T06:17:47.635Z,11.90
2022-11-13T06:20:36.174Z,11.57
2022-11-13T06:23:22.285Z,13.80
2022-11-13T06:26:10.709Z,14.73
2022-11-13T06:28:56.885Z,11.57
2022-11-13T06:31:43.056Z,15.43
2022-11-13T06:34:29.247Z,12.13
2022-11-13T06:37:16.822Z,11.90
2022-11-13T06:40:02.722Z,10.83
2022-11-13T06:42:48.823Z,12.50
2022-11-13T06:45:35.105Z,10.60
2022-11-13T06:48:21.211Z,11.70
2022-11-13T06:51:10.824Z,10.20
2022-11-13T06:53:59.088Z,16.77
2022-11-13T06:56:45.532Z,11.07
2022-11-13T06:59:31.627Z,14.83
2022-11-13T07:02:17.839Z,11.33
2022-11-13T07:05:04.322Z,10.97
2022-11-13T07:07:50.551Z,11.00
2022-11-13T07:10:38.726Z,16.60
2022-11-13T07:13:26.140Z,11.23
2022-11-13T07:16:17.475Z,13.80
2022-11-13T07:19:04.428Z,15.90
2022-11-13T07:21:50.547Z,14.97
2022-11-13T07:24:36.901Z,14.23
2022-11-13T07:27:24.687Z,18.33
2022-11-13T07:30:11.875Z,13.33
2022-11-13T07:33:02.815Z,16.60
2022-11-13T07:35:49.110Z,12.83
2022-11-13T07:38:35.385Z,16.40
2022-11-13T07:41:21.757Z,16.10
2022-11-13T07:44:11.103Z,16.03
2022-11-13T07:46:59.008Z,14.00
2022-11-13T07:49:45.386Z,15.07
2022-11-13T07:52:31.879Z,16.33
2022-11-13T07:55:17.854Z,13.83
2022-11-13T07:58:05.563Z,17.03
2022-11-13T08:00:53.016Z,19.23
2022-11-13T08:03:38.986Z,12.97
2022-11-13T08:06:27.585Z,18.53
2022-11-13T08:09:14.114Z,15.37
2022-11-13T08:12:00.565Z,15.70
2022-11-13T08:14:46.784Z,16.87
2022-11-13T08:17:34.250Z,13.97
2022-11-13T08:20:20.511Z,17.00
2022-11-13T08:23:06.992Z,16.30
2022-11-13T08:25:53.210Z,14.50
2022-11-13T08:28:39.893Z,18.40
2022-11-13T08:31:25.971Z,15.90
2022-11-13T08:34:13.416Z,18.47
2022-11-13T08:36:59.591Z,19.80
2022-11-13T08:39:45.659Z,22.20
2022-11-13T08:42:31.627Z,16.07
2022-11-13T08:45:17.975Z,18.83
2022-11-13T08:48:05.482Z,13.20
2022-11-13T08:50:53.725Z,14.97
2022-11-13T08:53:40.223Z,21.83
2022-11-13T08:56:26.533Z,22.40
2022-11-13T08:59:12.825Z,19.80
2022-11-13T09:01:59.241Z,22.10
2022-11-13T09:04:45.379Z,17.10
2022-11-13T09:07:33.205Z,17.57
2022-11-13T09:10:19.598Z,18.90
2022-11-13T09:13:08.668Z,16.27
2022-11-13T09:15:55.016Z,21.90
2022-11-13T09:18:41.318Z,18.43
2022-11-13T09:21:27.581Z,16.87
2022-11-13T09:24:15.078Z,15.90
2022-11-13T09:27:01.664Z,17.90
2022-11-13T09:29:51.481Z,17.80
2022-11-13T09:32:41.561Z,17.40
2022-11-13T09:35:34.903Z,20.70
2022-11-13T09:38:21.476Z,18.40
2022-11-13T09:41:11.428Z,17.63
2022-11-13T09:44:01.591Z,27.13
2022-11-13T09:46:52.189Z,20.40
2022-11-13T09:49:42.127Z,22.70
2022-11-13T09:52:32.176Z,23.47
2022-11-13T09:55:21.002Z,18.87
2022-11-13T09:58:16.602Z,24.53
2022-11-13T10:01:03.052Z,21.17
2022-11-13T10:04:03.297Z,21.90
2022-11-13T10:07:05.954Z,18.43
2022-11-13T10:10:06.484Z,20.50
2022-11-13T10:12:55.645Z,29.27
2022-11-13T10:15:45.283Z,19.03
2022-11-13T10:18:36.086Z,24.80
2022-11-13T10:21:34.424Z,22.13
2022-11-13T10:24:27.187Z,23.17
2022-11-13T10:27:14.815Z,19.20
2022-11-13T10:30:01.314Z,21.27
2022-11-13T10:32:49.476Z,24.27
2022-11-13T10:35:47.945Z,22.23
2022-11-13T10:38:39.858Z,19.40
2022-11-13T10:41:25.915Z,16.70
2022-11-13T10:44:30.482Z,22.90
2022-11-13T10:47:36.044Z,22.93
2022-11-13T10:50:28.386Z,23.30
2022-11-13T10:53:17.279Z,19.90
2022-11-13T10:56:12.307Z,23.50
2022-11-13T10:59:03.750Z,24.23
2022-11-13T11:01:50.618Z,21.73
2022-11-13T11:04:36.693Z,19.70
2022-11-13T11:07:24.731Z,24.87
2022-11-13T11:10:23.936Z,21.67
2022-11-13T11:13:12.722Z,26.37
2022-11-13T11:16:03.036Z,25.70
2022-11-13T11:18:54.649Z,27.50
2022-11-13T11:21:43.244Z,26.83
2022-11-13T11:24:34.571Z,27.57
2022-11-13T11:27:26.121Z,20.23
2022-11-13T11:30:20.038Z,23.80
2022-11-13T11:33:13.930Z,36.50
2022-11-13T11:36:05.208Z,29.20
2022-11-13T11:38:55.640Z,21.00
2022-11-13T11:41:47.543Z,26.97
2022-11-13T11:44:42.989Z,32.23
2022-11-13T11:47:29.029Z,26.40
2022-11-13T11:50:18.359Z,29.60
2022-11-13T11:53:14.122Z,33.10
2022-11-13T11:56:23.497Z,30.30
2022-11-13T11:59:27.514Z,34.30
2022-11-13T12:02:59.412Z,27.13
2022-11-13T12:05:58.449Z,38.60
2022-11-13T12:08:53.287Z,35.27
2022-11-13T12:11:43.972Z,29.00
2022-11-13T12:14:52.096Z,32.73
2022-11-13T12:17:52.635Z,30.37
2022-11-13T12:20:44.730Z,29.10
2022-11-13T12:23:48.719Z,32.00
2022-11-13T12:26:40.848Z,26.50
2022-11-13T12:29:49.459Z,24.80
2022-11-13T12:32:49.239Z,30.17
2022-11-13T12:35:37.603Z,30.80
2022-11-13T12:38:35.997Z,28.00
2022-11-13T12:41:31.817Z,30.93
2022-11-13T12:44:24.759Z,32.80
2022-11-13T12:47:13.059Z,25.10
2022-11-13T12:50:01.150Z,35.23
2022-11-13T12:52:59.154Z,31.63
2022-11-13T12:55:59.952Z,33.60
2022-11-13T12:59:29.212Z,28.53
2022-11-13T13:02:28.386Z,25.13
2022-11-13T13:05:37.233Z,26.23
2022-11-13T13:08:50.320Z,27.27
2022-11-13T13:11:44.667Z,23.07
2022-11-13T13:14:47.232Z,27.20
2022-11-13T13:17:35.121Z,28.93
2022-11-13T13:20:34.761Z,20.17
2022-11-13T13:23:28.543Z,18.10
2022-11-13T13:26:17.878Z,22.00
2022-11-13T13:29:17.591Z,22.83
2022-11-13T13:32:20.836Z,23.90
2022-11-13T13:35:17.467Z,21.60
2022-11-13T13:38:12.045Z,17.70
2022-11-13T13:41:13.149Z,27.20
2022-11-13T13:44:14.208Z,23.40
2022-11-13T13:47:00.659Z,21.60
2022-11-13T13:49:47.069Z,26.10
2022-11-13T13:52:37.257Z,17.43
2022-11-13T13:55:28.473Z,30.73
2022-11-13T13:58:18.828Z,29.53
2022-11-13T14:01:23.247Z,29.03
2022-11-13T14:04:15.248Z,28.00
2022-11-13T14:07:03.687Z,28.87
2022-11-13T14:09:51.457Z,30.13
2022-11-13T14:12:41.994Z,24.00
2022-11-13T14:15:30.990Z,24.60
2022-11-13T14:18:18.561Z,32.43
2022-11-13T14:21:09.777Z,26.67
2022-11-13T14:23:57.355Z,26.63
2022-11-13T14:26:45.284Z,26.53
2022-11-13T14:29:37.263Z,25.00
2022-11-13T14:32:25.918Z,26.67
2022-11-13T14:35:20.142Z,26.87
2022-11-13T14:38:06.925Z,34.63
2022-11-13T14:40:53.408Z,27.73
2022-11-13T14:43:49.811Z,31.00
2022-11-13T14:46:38.099Z,31.37
2022-11-13T14:49:28.769Z,31.00
2022-11-13T14:52:22.209Z,32.40
2022-11-13T14:55:22.201Z,32.10
2022-11-13T14:58:13.099Z,24.00
2022-11-13T15:01:01.146Z,28.53
2022-11-13T15:03:48.585Z,28.73
2022-11-13T15:06:37.843Z,28.93
2022-11-13T15:09:25.508Z,29.37
2022-11-13T15:12:12.210Z,35.50
2022-11-13T15:14:58.619Z,28.97
2022-11-13T15:17:47.487Z,31.87
2022-11-13T15:20:33.833Z,27.83
2022-11-13T15:23:26.515Z,23.87
2022-11-13T15:26:13.535Z,26.57
2022-11-13T15:28:59.783Z,29.10
2022-11-13T15:31:47.717Z,29.00
2022-11-13T15:34:35.067Z,21.77
2022-11-13T15:37:21.453Z,27.80
2022-11-13T15:40:09.073Z,25.90
2022-11-13T15:42:55.333Z,31.40
2022-11-13T15:45:44.447Z,30.23
2022-11-13T15:48:31.226Z,34.07
2022-11-13T15:51:22.306Z,26.40
2022-11-13T15:54:15.849Z,38.40
2022-11-13T15:57:02.021Z,31.67
2022-11-13T15:59:48.780Z,29.43
2022-11-13T16:02:35.679Z,35.00
2022-11-13T16:05:23.857Z,32.87
2022-11-13T16:08:14.782Z,36.60
2022-11-13T16:11:01.443Z,36.47
2022-11-13T16:13:48.849Z,25.00
2022-11-13T16:16:37.736Z,29.40
2022-11-13T16:19:25.996Z,38.07
2022-11-13T16:22:20.288Z,30.60
2022-11-13T16:25:10.806Z,31.60
2022-11-13T16:27:56.986Z,37.73
2022-11-13T16:30:43.700Z,34.20
2022-11-13T16:33:30.351Z,28.57
2022-11-13T16:36:18.744Z,30.90
2022-11-13T16:39:05.493Z,31.70
2022-11-13T16:41:53.206Z,29.07
2022-11-13T16:44:40.118Z,26.53
2022-11-13T16:47:27.195Z,27.17
2022-11-13T16:50:17.778Z,36.30
2022-11-13T16:53:04.223Z,30.67
2022-11-13T16:55:50.430Z,32.07
2022-11-13T16:58:38.065Z,26.10
2022-11-13T17:01:24.920Z,33.77
2022-11-13T17:04:13.887Z,41.30
2022-11-13T17:07:00.112Z,31.00
2022-11-13T17:09:52.180Z,27.57
2022-11-13T17:12:49.686Z,30.77
2022-11-13T17:15:37.152Z,31.70
2022-11-13T17:18:23.403Z,33.37
2022-11-13T17:21:09.507Z,37.13
2022-11-13T17:23:56.612Z,29.23
2022-11-13T17:26:43.018Z,32.47
2022-11-13T17:29:29.235Z,26.80
2022-11-13T17:32:16.663Z,26.53
2022-11-13T17:35:03.179Z,34.33
2022-11-13T17:37:49.288Z,36.07
2022-11-13T17:40:35.549Z,37.87
2022-11-13T17:43:22.335Z,35.73
2022-11-13T17:46:12.256Z,29.70
2022-11-13T17:48:59.746Z,37.47
2022-11-13T17:51:45.795Z,33.03
2022-11-13T17:54:32.166Z,32.80
2022-11-13T17:57:21.564Z,44.80
2022-11-13T18:00:12.674Z,38.23
2022-11-13T18:02:58.946Z,29.27
2022-11-13T18:05:47.401Z,34.20
2022-11-13T18:08:34.368Z,36.60
2022-11-13T18:11:22.924Z,30.20
2022-11-13T18:14:10.099Z,33.20
2022-11-13T18:16:56.445Z,30.70
2022-11-13T18:19:42.834Z,31.40
2022-11-13T18:22:30.987Z,30.07
2022-11-13T18:25:18.106Z,30.53
2022-11-13T18:28:04.777Z,32.97
2022-11-13T18:30:56.284Z,32.17
2022-11-13T18:33:43.427Z,35.10
2022-11-13T18:36:31.564Z,33.13
2022-11-13T18:39:19.528Z,35.03
2022-11-13T18:42:05.710Z,30.47
2022-11-13T18:44:51.776Z,30.40
2022-11-13T18:47:37.957Z,35.57
2022-11-13T18:50:24.301Z,28.80
2022-11-13T18:53:10.517Z,36.83
2022-11-13T18:56:04.882Z,38.77
2022-11-13T18:58:53.073Z,30.67
2022-11-13T19:01:39.860Z,32.07
2022-11-13T19:04:26.412Z,31.30
2022-11-13T19:07:12.793Z,28.27
2022-11-13T19:09:59.012Z,29.70
2022-11-13T19:12:46.822Z,37.30
2022-11-13T19:15:35.887Z,36.73
2022-11-13T19:18:22.808Z,39.50
2022-11-13T19:21:11.390Z,33.77
2022-11-13T19:23:58.475Z,38.27
2022-11-13T19:26:45.865Z,31.50
2022-11-13T19:29:33.554Z,39.03
2022-11-13T19:32:19.574Z,35.07
2022-11-13T19:35:06.642Z,30.17
2022-11-13T19:37:56.895Z,31.83
2022-11-13T19:40:45.376Z,35.47
2022-11-13T19:43:32.265Z,29.40
2022-11-13T19:46:20.642Z,29.20
2022-11-13T19:49:07.004Z,39.87
2022-11-13T19:51:54.403Z,31.77
2022-11-13T19:54:41.891Z,35.87
2022-11-13T19:57:28.309Z,31.43
2022-11-13T20:00:15.080Z,32.90
2022-11-13T20:03:06.539Z,31.03
2022-11-13T20:05:54.807Z,36.50
2022-11-13T20:08:42.801Z,32.67
2022-11-13T20:11:29.183Z,31.47
2022-11-13T20:14:15.788Z,35.70
2022-11-13T20:17:03.321Z,35.37
2022-11-13T20:19:51.179Z,29.37
2022-11-13T20:22:37.785Z,33.60
2022-11-13T20:25:25.494Z,38.03
2022-11-13T20:28:11.806Z,34.73
2022-11-13T20:31:09.113Z,32.63
2022-11-13T20:33:57.499Z,30.40
2022-11-13T20:36:45.283Z,30.73
2022-11-13T20:39:31.550Z,35.73
2022-11-13T20:42:18.091Z,30.47
2022-11-13T20:45:04.953Z,29.07
2022-11-13T20:47:51.026Z,27.60
2022-11-13T20:50:37.421Z,38.10
2022-11-13T20:53:25.011Z,38.30
2022-11-13T20:56:13.030Z,29.57
2022-11-13T20:58:59.506Z,36.53
2022-11-13T21:01:46.069Z,27.50
2022-11-13T21:04:32.647Z,29.07
2022-11-13T21:07:18.828Z,29.80
2022-11-13T21:10:07.384Z,32.80
2022-11-13T21:12:53.760Z,31.30
2022-11-13T21:15:39.990Z,27.30
2022-11-13T21:18:26.642Z,34.83
2022-11-13T21:21:15.975Z,32.37
2022-11-13T21:24:02.364Z,36.13
2022-11-13T21:26:50.309Z,28.70
2022-11-13T21:29:36.784Z,32.87
2022-11-13T21:32:22.943Z,31.63
2022-11-13T21:35:09.611Z,27.00
2022-11-13T21:37:55.857Z,33.93
2022-11-13T21:40:42.136Z,29.33
2022-11-13T21:43:29.701Z,34.90
2022-11-13T21:46:16.256Z,31.47
2022-11-13T21:49:05.316Z,39.90
2022-11-13T21:51:51.662Z,41.63
2022-11-13T21:54:37.843Z,40.50
2022-11-13T21:57:24.671Z,34.43
2022-11-13T22:00:14.678Z,35.07
2022-11-13T22:03:00.666Z,28.30
2022-11-13T22:05:46.847Z,31.33
2022-11-13T22:08:33.165Z,29.47
2022-11-13T22:11:19.356Z,35.77
2022-11-13T22:14:06.433Z,33.33
2022-11-13T22:16:54.110Z,38.80
2022-11-13T22:19:40.456Z,34.57
2022-11-13T22:22:26.539Z,31.97
2022-11-13T22:25:12.533Z,33.07
2022-11-13T22:27:58.669Z,29.00
2022-11-13T22:30:46.856Z,30.00
2022-11-13T22:33:35.874Z,32.90
2022-11-13T22:36:25.750Z,33.50
2022-11-13T22:39:12.104Z,31.80
2022-11-13T22:41:58.120Z,34.77
2022-11-13T22:44:55.508Z,35.60
2022-11-13T22:47:42.958Z,34.97
2022-11-13T22:50:30.598Z,35.80
2022-11-13T22:53:16.795Z,29.60
2022-11-13T22:56:05.429Z,31.00
2022-11-13T22:58:51.559Z,30.77
2022-11-13T23:01:39.185Z,32.03
2022-11-13T23:04:25.385Z,31.30
2022-11-13T23:07:12.999Z,35.53
2022-11-13T23:09:59.525Z,32.93
2022-11-13T23:12:46.016Z,37.37
2022-11-13T23:15:32.299Z,36.23
2022-11-13T23:18:18.689Z,33.57
2022-11-13T23:21:05.351Z,42.93
2022-11-13T23:23:53.539Z,29.20
2022-11-13T23:26:40.130Z,35.90
2022-11-13T23:29:26.502Z,36.43
2022-11-13T23:32:12.697Z,36.57
2022-11-13T23:34:59.870Z,39.57
2022-11-13T23:37:47.422Z,31.30
2022-11-13T23:40:35.462Z,38.90
2022-11-13T23:43:22.215Z,30.77
2022-11-13T23:46:08.169Z,35.20
2022-11-13T23:48:54.696Z,40.70
2022-11-13T23:51:41.152Z,30.57
2022-11-13T23:54:27.389Z,40.97
2022-11-13T23:57:14.718Z,33.30
